createdAt,value
2022-07-25T00:00:47.581Z,6.57
2022-07-25T00:01:20.634Z,4.63
2022-07-25T00:01:52.551Z,5.47
2022-07-25T00:02:24.591Z,4.70
2022-07-25T00:02:56.163Z,5.60
2022-07-25T00:03:28.462Z,6.22
2022-07-25T00:04:00.277Z,4.57
2022-07-25T00:04:34.222Z,5.78
2022-07-25T00:05:07.854Z,4.10
2022-07-25T00:05:39.446Z,4.95
2022-07-25T00:06:13.374Z,7.55
2022-07-25T00:06:49.275Z,8.35
2022-07-25T00:07:20.878Z,4.32
2022-07-25T00:07:52.531Z,5.35
2022-07-25T00:08:24.435Z,4.28
2022-07-25T00:08:55.995Z,4.70
2022-07-25T00:09:27.569Z,8.70
2022-07-25T00:09:59.218Z,4.57
2022-07-25T00:10:30.778Z,4.60
2022-07-25T00:11:02.546Z,4.13
2022-07-25T00:11:34.180Z,4.55
2022-07-25T00:12:06.203Z,4.78
2022-07-25T00:12:39.103Z,4.80
2022-07-25T00:13:10.930Z,8.05
2022-07-25T00:13:42.554Z,4.78
2022-07-25T00:14:14.582Z,5.30
2022-07-25T00:14:46.151Z,6.50
2022-07-25T00:15:17.674Z,5.15
2022-07-25T00:15:49.317Z,5.18
2022-07-25T00:16:20.964Z,7.07
2022-07-25T00:16:52.532Z,5.05
2022-07-25T00:17:24.054Z,6.25
2022-07-25T00:17:55.590Z,5.97
2022-07-25T00:18:27.170Z,6.82
2022-07-25T00:18:58.974Z,5.55
2022-07-25T00:19:30.550Z,5.15
2022-07-25T00:20:02.805Z,4.93
2022-07-25T00:20:34.321Z,5.30
2022-07-25T00:21:06.095Z,6.38
2022-07-25T00:21:37.640Z,4.88
2022-07-25T00:22:09.527Z,6.38
2022-07-25T00:22:41.037Z,4.93
2022-07-25T00:23:12.585Z,5.32
2022-07-25T00:23:44.119Z,5.43
2022-07-25T00:24:16.415Z,6.22
2022-07-25T00:24:47.970Z,5.13
2022-07-25T00:25:19.520Z,6.07
2022-07-25T00:25:51.064Z,4.85
2022-07-25T00:26:22.797Z,4.97
2022-07-25T00:26:54.572Z,4.97
2022-07-25T00:27:26.639Z,4.97
2022-07-25T00:27:58.167Z,5.00
2022-07-25T00:28:29.742Z,12.38
2022-07-25T00:29:01.451Z,4.45
2022-07-25T00:29:33.055Z,5.05
2022-07-25T00:30:06.237Z,4.20
2022-07-25T00:30:37.802Z,5.40
2022-07-25T00:31:09.483Z,9.23
2022-07-25T00:31:41.126Z,8.30
2022-07-25T00:32:12.960Z,5.47
2022-07-25T00:32:44.597Z,8.40
2022-07-25T00:33:16.127Z,10.98
2022-07-25T00:33:47.688Z,4.75
2022-07-25T00:34:19.270Z,4.82
2022-07-25T00:34:50.901Z,5.00
2022-07-25T00:35:22.594Z,5.85
2022-07-25T00:35:54.117Z,7.65
2022-07-25T00:36:25.653Z,5.32
2022-07-25T00:36:57.277Z,5.10
2022-07-25T00:37:28.909Z,5.57
2022-07-25T00:38:00.453Z,10.02
2022-07-25T00:38:31.957Z,5.00
2022-07-25T00:39:04.363Z,4.90
2022-07-25T00:39:36.542Z,6.40
2022-07-25T00:40:09.010Z,5.68
2022-07-25T00:40:40.660Z,5.50
2022-07-25T00:41:12.205Z,5.95
2022-07-25T00:41:44.514Z,6.88
2022-07-25T00:42:16.071Z,6.43
2022-07-25T00:42:47.646Z,8.52
2022-07-25T00:43:20.082Z,5.18
2022-07-25T00:43:51.610Z,6.50
2022-07-25T00:44:30.962Z,5.65
2022-07-25T00:45:02.628Z,5.93
2022-07-25T00:45:34.172Z,6.47
2022-07-25T00:46:05.816Z,8.25
2022-07-25T00:46:40.425Z,4.68
2022-07-25T00:47:13.105Z,6.78
2022-07-25T00:47:44.634Z,8.75
2022-07-25T00:48:16.271Z,4.57
2022-07-25T00:48:48.039Z,5.63
2022-07-25T00:49:19.771Z,5.35
2022-07-25T00:49:51.451Z,4.90
2022-07-25T00:50:23.265Z,8.65
2022-07-25T00:50:55.991Z,8.75
2022-07-25T00:51:27.614Z,10.65
2022-07-25T00:51:59.213Z,6.80
2022-07-25T00:52:30.856Z,5.55
2022-07-25T00:53:02.536Z,5.53
2022-07-25T00:53:35.091Z,6.78
2022-07-25T00:54:07.251Z,5.03
2022-07-25T00:54:39.153Z,4.97
2022-07-25T00:55:10.964Z,5.13
2022-07-25T00:55:42.553Z,5.88
2022-07-25T00:56:15.532Z,5.00
2022-07-25T00:56:48.030Z,5.32
2022-07-25T00:57:19.604Z,5.18
2022-07-25T00:57:51.322Z,5.32
2022-07-25T00:58:22.991Z,5.43
2022-07-25T00:58:54.706Z,5.70
2022-07-25T00:59:26.574Z,5.47
2022-07-25T00:59:58.411Z,6.38
2022-07-25T01:00:30.072Z,5.13
2022-07-25T01:01:03.728Z,5.47
2022-07-25T01:01:36.244Z,5.40
2022-07-25T01:02:08.052Z,6.97
2022-07-25T01:02:40.693Z,5.55
2022-07-25T01:03:12.396Z,5.97
2022-07-25T01:03:44.124Z,5.70
2022-07-25T01:04:16.451Z,7.97
2022-07-25T01:04:48.296Z,5.50
2022-07-25T01:05:19.869Z,4.85
2022-07-25T01:05:53.744Z,6.03
2022-07-25T01:06:26.595Z,4.90
2022-07-25T01:06:58.519Z,5.32
2022-07-25T01:07:30.309Z,5.18
2022-07-25T01:08:02.705Z,6.13
2022-07-25T01:08:34.324Z,6.15
2022-07-25T01:09:06.023Z,4.88
2022-07-25T01:09:38.057Z,5.13
2022-07-25T01:10:10.363Z,4.40
2022-07-25T01:10:41.998Z,5.07
2022-07-25T01:11:13.575Z,5.15
2022-07-25T01:11:45.173Z,4.97
2022-07-25T01:12:16.734Z,7.50
2022-07-25T01:12:52.951Z,5.68
2022-07-25T01:13:24.480Z,6.35
2022-07-25T01:13:55.994Z,5.15
2022-07-25T01:14:27.597Z,5.40
2022-07-25T01:14:59.258Z,5.03
2022-07-25T01:15:31.240Z,6.20
2022-07-25T01:16:03.128Z,4.93
2022-07-25T01:16:34.775Z,5.28
2022-07-25T01:17:06.402Z,4.97
2022-07-25T01:17:38.003Z,5.10
2022-07-25T01:18:09.510Z,5.80
2022-07-25T01:18:41.103Z,7.15
2022-07-25T01:19:12.616Z,5.57
2022-07-25T01:19:44.174Z,6.07
2022-07-25T01:20:19.490Z,5.95
2022-07-25T01:20:51.124Z,5.75
2022-07-25T01:21:24.355Z,5.60
2022-07-25T01:21:56.342Z,8.93
2022-07-25T01:22:27.870Z,5.82
2022-07-25T01:23:00.414Z,6.10
2022-07-25T01:23:31.979Z,6.53
2022-07-25T01:24:04.360Z,6.10
2022-07-25T01:24:36.169Z,6.68
2022-07-25T01:25:07.995Z,6.32
2022-07-25T01:25:39.636Z,6.63
2022-07-25T01:26:11.363Z,6.13
2022-07-25T01:26:42.985Z,5.32
2022-07-25T01:27:17.337Z,6.75
2022-07-25T01:27:55.060Z,6.65
2022-07-25T01:28:27.314Z,7.60
2022-07-25T01:28:59.616Z,9.23
2022-07-25T01:29:31.185Z,5.82
2022-07-25T01:30:04.693Z,7.35
2022-07-25T01:30:36.273Z,8.45
2022-07-25T01:31:08.033Z,6.95
2022-07-25T01:31:39.742Z,6.15
2022-07-25T01:32:12.327Z,6.63
2022-07-25T01:32:44.859Z,6.43
2022-07-25T01:33:17.741Z,6.28
2022-07-25T01:33:49.394Z,9.50
2022-07-25T01:34:20.919Z,20.30
2022-07-25T01:34:52.510Z,24.77
2022-07-25T01:35:24.072Z,15.80
2022-07-25T01:35:55.653Z,31.08
2022-07-25T01:36:27.296Z,21.65
2022-07-25T01:36:58.814Z,14.52
2022-07-25T01:37:30.388Z,14.85
2022-07-25T01:38:01.946Z,12.07
2022-07-25T01:38:33.511Z,10.68
2022-07-25T01:39:05.061Z,18.73
2022-07-25T01:39:36.699Z,15.43
2022-07-25T01:40:09.006Z,11.95
2022-07-25T01:40:43.167Z,7.60
2022-07-25T01:41:22.181Z,9.85
2022-07-25T01:41:54.271Z,9.90
2022-07-25T01:42:26.232Z,7.55
2022-07-25T01:42:57.881Z,13.50
2022-07-25T01:43:29.481Z,8.77
2022-07-25T01:44:01.004Z,8.10
2022-07-25T01:44:32.524Z,9.25
2022-07-25T01:45:05.145Z,10.75
2022-07-25T01:45:36.845Z,9.90
2022-07-25T01:46:08.476Z,6.93
2022-07-25T01:46:40.140Z,7.93
2022-07-25T01:47:11.721Z,6.68
2022-07-25T01:47:43.329Z,9.25
2022-07-25T01:48:15.077Z,9.35
2022-07-25T01:48:48.546Z,6.78
2022-07-25T01:49:20.326Z,7.90
2022-07-25T01:49:52.421Z,7.88
2022-07-25T01:50:24.561Z,8.00
2022-07-25T01:50:56.161Z,8.60
2022-07-25T01:51:28.737Z,9.25
2022-07-25T01:52:00.934Z,9.77
2022-07-25T01:52:32.589Z,7.63
2022-07-25T01:53:05.546Z,8.45
2022-07-25T01:53:37.133Z,7.72
2022-07-25T01:54:08.940Z,11.30
2022-07-25T01:54:43.473Z,7.40
2022-07-25T01:55:15.187Z,7.25
2022-07-25T01:55:47.167Z,8.13
2022-07-25T01:56:22.469Z,7.55
2022-07-25T01:56:54.164Z,7.72
2022-07-25T01:57:30.658Z,8.70
2022-07-25T01:58:02.813Z,8.45
2022-07-25T01:58:34.722Z,8.57
2022-07-25T01:59:06.296Z,8.77
2022-07-25T01:59:42.018Z,8.68
2022-07-25T02:00:14.986Z,8.88
2022-07-25T02:00:46.834Z,13.35
2022-07-25T02:01:19.474Z,8.70
2022-07-25T02:01:53.755Z,9.00
2022-07-25T02:02:25.994Z,8.95
2022-07-25T02:03:16.273Z,11.07
2022-07-25T02:03:47.825Z,8.45
2022-07-25T02:04:19.416Z,12.13
2022-07-25T02:04:51.054Z,9.57
2022-07-25T02:05:22.624Z,11.38
2022-07-25T02:05:54.312Z,9.43
2022-07-25T02:06:25.833Z,9.98
2022-07-25T02:06:57.407Z,8.15
2022-07-25T02:07:29.022Z,8.10
2022-07-25T02:08:00.544Z,9.70
2022-07-25T02:08:32.605Z,9.48
2022-07-25T02:09:04.809Z,9.80
2022-07-25T02:09:36.357Z,9.50
2022-07-25T02:10:08.761Z,9.57
2022-07-25T02:10:40.356Z,9.32
2022-07-25T02:11:12.029Z,8.70
2022-07-25T02:11:43.559Z,9.80
2022-07-25T02:12:15.150Z,8.07
2022-07-25T02:12:46.766Z,9.25
2022-07-25T02:13:19.671Z,10.23
2022-07-25T02:13:51.270Z,9.32
2022-07-25T02:14:23.277Z,10.65
2022-07-25T02:14:54.817Z,9.77
2022-07-25T02:15:26.349Z,10.18
2022-07-25T02:15:57.939Z,9.93
2022-07-25T02:16:29.622Z,9.75
2022-07-25T02:17:01.282Z,9.85
2022-07-25T02:17:32.870Z,9.98
2022-07-25T02:18:04.616Z,12.57
2022-07-25T02:18:36.419Z,14.15
2022-07-25T02:19:08.181Z,10.35
2022-07-25T02:19:39.777Z,10.88
2022-07-25T02:20:11.797Z,10.07
2022-07-25T02:20:43.798Z,11.27
2022-07-25T02:21:15.397Z,11.68
2022-07-25T02:21:46.947Z,11.20
2022-07-25T02:22:18.580Z,11.52
2022-07-25T02:22:50.097Z,11.27
2022-07-25T02:23:21.636Z,11.93
2022-07-25T02:23:53.211Z,11.45
2022-07-25T02:24:24.792Z,11.07
2022-07-25T02:24:56.331Z,17.83
2022-07-25T02:25:27.875Z,11.70
2022-07-25T02:25:59.628Z,11.93
2022-07-25T02:26:31.195Z,11.93
2022-07-25T02:27:03.865Z,10.57
2022-07-25T02:27:35.526Z,11.90
2022-07-25T02:28:07.112Z,11.35
2022-07-25T02:28:42.134Z,11.27
2022-07-25T02:29:13.696Z,14.88
2022-07-25T02:29:45.236Z,12.18
2022-07-25T02:30:16.786Z,11.05
2022-07-25T02:30:48.394Z,11.50
2022-07-25T02:31:20.110Z,11.10
2022-07-25T02:31:53.093Z,13.52
2022-07-25T02:32:24.797Z,12.05
2022-07-25T02:32:56.544Z,14.55
2022-07-25T02:33:28.076Z,11.48
2022-07-25T02:33:59.722Z,15.50
2022-07-25T02:34:31.274Z,11.48
2022-07-25T02:35:02.882Z,11.68
2022-07-25T02:35:34.537Z,12.25
2022-07-25T02:36:06.669Z,14.05
2022-07-25T02:36:38.432Z,11.70
2022-07-25T02:37:10.118Z,13.45
2022-07-25T02:37:41.722Z,11.10
2022-07-25T02:38:19.538Z,12.93
2022-07-25T02:38:51.374Z,13.05
2022-07-25T02:39:22.925Z,12.80
2022-07-25T02:39:54.482Z,11.05
2022-07-25T02:40:26.310Z,13.32
2022-07-25T02:40:57.856Z,15.82
2022-07-25T02:41:29.537Z,12.95
2022-07-25T02:42:01.140Z,11.90
2022-07-25T02:42:32.657Z,12.82
2022-07-25T02:43:04.228Z,11.55
2022-07-25T02:43:35.800Z,13.13
2022-07-25T02:44:07.834Z,12.82
2022-07-25T02:44:39.611Z,12.60
2022-07-25T02:45:11.407Z,12.75
2022-07-25T02:45:44.389Z,16.23
2022-07-25T02:46:16.228Z,13.05
2022-07-25T02:46:47.818Z,12.85
2022-07-25T02:47:19.377Z,15.60
2022-07-25T02:47:50.932Z,13.43
2022-07-25T02:48:22.457Z,13.35
2022-07-25T02:48:54.046Z,24.63
2022-07-25T02:49:25.643Z,12.60
2022-07-25T02:49:57.210Z,14.10
2022-07-25T02:50:29.092Z,14.50
2022-07-25T02:51:00.677Z,16.33
2022-07-25T02:51:32.282Z,12.95
2022-07-25T02:52:04.137Z,12.85
2022-07-25T02:52:35.715Z,13.30
2022-07-25T02:53:07.360Z,17.88
2022-07-25T02:54:30.486Z,12.52
2022-07-25T02:55:06.108Z,13.32
2022-07-25T02:55:40.982Z,13.32
2022-07-25T02:56:14.185Z,18.90
2022-07-25T02:56:46.303Z,15.52
2022-07-25T02:57:17.924Z,16.85
2022-07-25T02:57:49.479Z,13.55
2022-07-25T02:58:21.057Z,13.05
2022-07-25T02:58:52.732Z,15.15
2022-07-25T02:59:24.291Z,13.10
2022-07-25T02:59:55.874Z,13.48
2022-07-25T03:00:27.453Z,13.25
2022-07-25T03:00:59.085Z,13.65
2022-07-25T03:01:33.460Z,13.25
2022-07-25T03:02:05.068Z,13.40
2022-07-25T03:02:36.745Z,14.75
2022-07-25T03:03:08.560Z,13.50
2022-07-25T03:03:40.202Z,15.45
2022-07-25T03:04:11.944Z,14.32
2022-07-25T03:04:43.664Z,17.65
2022-07-25T03:05:15.897Z,14.30
2022-07-25T03:05:47.482Z,15.93
2022-07-25T03:06:19.047Z,13.70
2022-07-25T03:06:50.636Z,13.32
2022-07-25T03:07:22.172Z,15.52
2022-07-25T03:07:53.770Z,14.20
2022-07-25T03:08:25.369Z,15.38
2022-07-25T03:08:56.960Z,14.55
2022-07-25T03:09:28.526Z,16.05
2022-07-25T03:10:00.092Z,15.23
2022-07-25T03:10:31.649Z,15.60
2022-07-25T03:11:03.393Z,15.75
2022-07-25T03:11:34.966Z,14.88
2022-07-25T03:12:06.683Z,15.45
2022-07-25T03:12:39.439Z,13.50
2022-07-25T03:13:11.039Z,14.07
2022-07-25T03:13:42.684Z,13.95
2022-07-25T03:14:14.221Z,13.70
2022-07-25T03:14:45.799Z,16.13
2022-07-25T03:15:17.360Z,17.02
2022-07-25T03:15:48.986Z,13.82
2022-07-25T03:16:22.230Z,15.57
2022-07-25T03:16:53.863Z,13.82
2022-07-25T03:17:25.947Z,15.07
2022-07-25T03:17:58.041Z,16.00
2022-07-25T03:18:29.668Z,12.52
2022-07-25T03:19:01.235Z,14.15
2022-07-25T03:19:32.770Z,14.10
2022-07-25T03:20:06.104Z,13.90
2022-07-25T03:20:37.645Z,15.73
2022-07-25T03:21:09.183Z,18.08
2022-07-25T03:21:40.769Z,16.00
2022-07-25T03:22:12.298Z,13.75
2022-07-25T03:22:44.082Z,15.80
2022-07-25T03:23:15.674Z,14.82
2022-07-25T03:23:52.119Z,13.70
2022-07-25T03:24:24.787Z,14.00
2022-07-25T03:24:56.312Z,17.35
2022-07-25T03:25:27.878Z,16.38
2022-07-25T03:25:59.407Z,13.98
2022-07-25T03:26:31.213Z,13.75
2022-07-25T03:27:03.277Z,14.40
2022-07-25T03:27:34.834Z,14.55
2022-07-25T03:28:06.464Z,13.45
2022-07-25T03:28:38.046Z,14.57
2022-07-25T03:29:09.556Z,28.02
2022-07-25T03:29:41.402Z,14.70
2022-07-25T03:30:13.235Z,14.63
2022-07-25T03:30:44.781Z,14.00
2022-07-25T03:31:16.598Z,14.32
2022-07-25T03:31:48.498Z,16.88
2022-07-25T03:32:20.574Z,14.30
2022-07-25T03:32:52.170Z,14.20
2022-07-25T03:33:23.919Z,14.15
2022-07-25T03:33:55.454Z,14.98
2022-07-25T03:34:27.484Z,14.00
2022-07-25T03:34:59.023Z,13.88
2022-07-25T03:35:30.544Z,14.68
2022-07-25T03:36:02.129Z,15.38
2022-07-25T03:36:33.772Z,14.57
2022-07-25T03:37:05.698Z,13.23
2022-07-25T03:37:37.314Z,15.57
2022-07-25T03:38:08.864Z,15.48
2022-07-25T03:38:40.510Z,15.18
2022-07-25T03:39:12.036Z,16.85
2022-07-25T03:39:43.629Z,14.73
2022-07-25T03:40:15.864Z,14.18
2022-07-25T03:40:47.803Z,14.85
2022-07-25T03:41:19.465Z,16.80
2022-07-25T03:41:52.841Z,15.25
2022-07-25T03:42:26.710Z,15.38
2022-07-25T03:42:58.530Z,14.55
2022-07-25T03:43:30.999Z,14.55
2022-07-25T03:44:02.876Z,14.57
2022-07-25T03:44:34.688Z,15.30
2022-07-25T03:45:06.902Z,18.42
2022-07-25T03:45:38.505Z,14.73
2022-07-25T03:46:10.256Z,15.57
2022-07-25T03:46:42.105Z,14.20
2022-07-25T03:47:20.173Z,14.82
2022-07-25T03:47:52.441Z,16.23
2022-07-25T03:48:24.016Z,15.70
2022-07-25T03:48:55.961Z,14.45
2022-07-25T03:49:27.792Z,26.20
2022-07-25T03:49:59.358Z,29.58
2022-07-25T03:50:31.077Z,22.65
2022-07-25T03:51:06.853Z,17.23
2022-07-25T03:51:38.865Z,15.02
2022-07-25T03:52:10.452Z,15.07
2022-07-25T03:52:42.253Z,15.48
2022-07-25T03:53:13.921Z,15.10
2022-07-25T03:54:04.111Z,17.58
2022-07-25T03:54:36.086Z,21.83
2022-07-25T03:55:09.595Z,16.35
2022-07-25T03:55:41.114Z,15.77
2022-07-25T03:56:12.636Z,14.98
2022-07-25T03:56:49.118Z,14.38
2022-07-25T03:57:20.653Z,15.68
2022-07-25T03:57:52.206Z,15.90
2022-07-25T03:58:23.888Z,14.02
2022-07-25T03:58:55.591Z,14.38
2022-07-25T03:59:27.173Z,15.65
2022-07-25T03:59:58.718Z,16.27
2022-07-25T04:00:30.365Z,15.48
2022-07-25T04:01:03.004Z,15.32
2022-07-25T04:01:36.055Z,15.18
2022-07-25T04:02:07.638Z,14.45
2022-07-25T04:02:39.532Z,14.00
2022-07-25T04:03:11.142Z,15.43
2022-07-25T04:03:42.702Z,15.57
2022-07-25T04:04:16.683Z,15.80
2022-07-25T04:04:48.226Z,15.50
2022-07-25T04:05:19.779Z,15.73
2022-07-25T04:05:51.308Z,14.52
2022-07-25T04:06:23.664Z,14.55
2022-07-25T04:06:55.348Z,19.42
2022-07-25T04:07:26.997Z,15.13
2022-07-25T04:07:59.009Z,20.70
2022-07-25T04:08:30.596Z,15.25
2022-07-25T04:09:02.241Z,16.73
2022-07-25T04:09:33.922Z,15.40
2022-07-25T04:10:07.583Z,17.00
2022-07-25T04:10:39.126Z,16.40
2022-07-25T04:11:10.680Z,14.50
2022-07-25T04:11:42.286Z,18.73
2022-07-25T04:12:13.870Z,14.70
2022-07-25T04:12:45.613Z,15.30
2022-07-25T04:13:17.370Z,16.15
2022-07-25T04:13:49.519Z,14.50
2022-07-25T04:14:21.214Z,14.68
2022-07-25T04:14:52.784Z,14.98
2022-07-25T04:15:24.416Z,14.07
2022-07-25T04:15:56.332Z,14.23
2022-07-25T04:16:29.802Z,16.52
2022-07-25T04:17:01.454Z,18.25
2022-07-25T04:17:33.173Z,14.80
2022-07-25T04:18:04.724Z,14.63
2022-07-25T04:18:38.866Z,14.02
2022-07-25T04:19:11.743Z,14.18
2022-07-25T04:19:43.293Z,14.52
2022-07-25T04:20:15.493Z,13.68
2022-07-25T04:20:47.987Z,13.82
2022-07-25T04:21:19.964Z,14.15
2022-07-25T04:21:51.589Z,16.27
2022-07-25T04:22:23.162Z,15.57
2022-07-25T04:22:54.778Z,15.52
2022-07-25T04:23:26.403Z,14.27
2022-07-25T04:23:58.002Z,13.07
2022-07-25T04:24:29.542Z,20.15
2022-07-25T04:25:01.706Z,19.90
2022-07-25T04:25:33.240Z,14.68
2022-07-25T04:26:04.923Z,14.43
2022-07-25T04:26:36.927Z,16.98
2022-07-25T04:27:09.090Z,15.60
2022-07-25T04:27:40.665Z,13.40
2022-07-25T04:28:12.530Z,14.68
2022-07-25T04:28:44.107Z,14.02
2022-07-25T04:29:15.762Z,14.23
2022-07-25T04:29:47.295Z,16.35
2022-07-25T04:30:24.301Z,13.40
2022-07-25T04:30:56.753Z,15.35
2022-07-25T04:31:28.378Z,15.02
2022-07-25T04:32:00.110Z,16.23
2022-07-25T04:32:31.699Z,16.38
2022-07-25T04:33:03.358Z,15.98
2022-07-25T04:33:38.628Z,15.13
2022-07-25T04:34:10.350Z,13.48
2022-07-25T04:34:43.657Z,13.98
2022-07-25T04:35:15.276Z,13.63
2022-07-25T04:35:47.145Z,23.98
2022-07-25T04:36:18.697Z,18.70
2022-07-25T04:36:50.466Z,15.43
2022-07-25T04:37:22.162Z,16.02
2022-07-25T04:37:53.786Z,12.93
2022-07-25T04:38:25.682Z,13.45
2022-07-25T04:38:57.326Z,14.60
2022-07-25T04:39:29.034Z,20.48
2022-07-25T04:40:00.606Z,14.23
2022-07-25T04:40:32.461Z,13.38
2022-07-25T04:41:04.737Z,15.18
2022-07-25T04:41:36.264Z,14.07
2022-07-25T04:42:07.880Z,15.13
2022-07-25T04:42:39.457Z,13.93
2022-07-25T04:43:11.258Z,12.80
2022-07-25T04:43:48.359Z,12.15
2022-07-25T04:44:20.379Z,13.75
2022-07-25T04:44:51.908Z,18.15
2022-07-25T04:45:23.666Z,17.35
2022-07-25T04:45:55.315Z,14.60
2022-07-25T04:46:26.920Z,13.10
2022-07-25T04:46:58.465Z,13.85
2022-07-25T04:47:30.316Z,12.95
2022-07-25T04:48:02.569Z,15.32
2022-07-25T04:48:34.207Z,16.85
2022-07-25T04:49:05.886Z,14.95
2022-07-25T04:49:37.566Z,12.75
2022-07-25T04:50:09.740Z,20.30
2022-07-25T04:50:41.310Z,15.52
2022-07-25T04:51:12.904Z,11.95
2022-07-25T04:51:44.477Z,13.52
2022-07-25T04:52:15.996Z,12.38
2022-07-25T04:52:47.722Z,12.48
2022-07-25T04:53:19.476Z,13.27
2022-07-25T04:53:51.055Z,12.43
2022-07-25T04:54:22.728Z,11.90
2022-07-25T04:54:54.311Z,12.25
2022-07-25T04:55:25.881Z,12.18
2022-07-25T04:55:57.495Z,14.43
2022-07-25T04:56:29.081Z,13.07
2022-07-25T04:57:00.794Z,15.35
2022-07-25T04:57:32.464Z,12.20
2022-07-25T04:58:04.596Z,13.85
2022-07-25T04:58:36.302Z,11.10
2022-07-25T04:59:07.915Z,11.95
2022-07-25T04:59:39.514Z,12.43
2022-07-25T05:00:11.643Z,11.68
2022-07-25T05:00:43.409Z,11.43
2022-07-25T05:01:15.310Z,11.70
2022-07-25T05:01:47.032Z,13.02
2022-07-25T05:02:18.960Z,13.00
2022-07-25T05:02:51.686Z,11.27
2022-07-25T05:03:23.225Z,12.63
2022-07-25T05:03:54.816Z,12.13
2022-07-25T05:04:26.352Z,16.48
2022-07-25T05:04:58.589Z,11.55
2022-07-25T05:05:34.562Z,10.93
2022-07-25T05:06:06.745Z,11.48
2022-07-25T05:06:38.292Z,11.30
2022-07-25T05:07:09.846Z,12.30
2022-07-25T05:07:41.435Z,10.82
2022-07-25T05:08:13.079Z,10.75
2022-07-25T05:08:44.659Z,11.07
2022-07-25T05:09:16.217Z,11.25
2022-07-25T05:09:47.776Z,11.65
2022-07-25T05:10:19.415Z,11.50
2022-07-25T05:10:51.088Z,11.32
2022-07-25T05:11:25.473Z,12.15
2022-07-25T05:11:57.018Z,10.65
2022-07-25T05:12:28.657Z,11.05
2022-07-25T05:13:00.238Z,14.85
2022-07-25T05:13:31.899Z,13.18
2022-07-25T05:14:03.800Z,10.50
2022-07-25T05:14:35.684Z,10.20
2022-07-25T05:15:07.823Z,15.27
2022-07-25T05:15:39.360Z,18.10
2022-07-25T05:16:11.066Z,25.35
2022-07-25T05:16:42.694Z,16.45
2022-07-25T05:17:14.233Z,18.88
2022-07-25T05:17:45.902Z,23.73
2022-07-25T05:18:17.672Z,13.52
2022-07-25T05:18:49.335Z,33.65
2022-07-25T05:19:20.891Z,28.17
2022-07-25T05:19:52.524Z,20.95
2022-07-25T05:20:24.305Z,20.30
2022-07-25T05:20:55.838Z,26.45
2022-07-25T05:21:27.831Z,20.50
2022-07-25T05:21:59.474Z,12.52
2022-07-25T05:22:31.738Z,17.02
2022-07-25T05:23:03.407Z,10.50
2022-07-25T05:23:35.010Z,10.85
2022-07-25T05:24:07.406Z,11.50
2022-07-25T05:24:39.322Z,12.48
2022-07-25T05:25:11.592Z,12.15
2022-07-25T05:25:43.462Z,10.45
2022-07-25T05:26:15.032Z,10.88
2022-07-25T05:26:46.585Z,13.20
2022-07-25T05:27:18.093Z,12.05
2022-07-25T05:27:49.660Z,11.20
2022-07-25T05:28:21.182Z,12.50
2022-07-25T05:28:52.732Z,19.55
2022-07-25T05:29:24.402Z,10.60
2022-07-25T05:29:56.151Z,11.15
2022-07-25T05:30:27.849Z,10.45
2022-07-25T05:30:59.498Z,10.75
2022-07-25T05:31:31.203Z,10.13
2022-07-25T05:32:02.987Z,11.98
2022-07-25T05:32:34.640Z,13.75
2022-07-25T05:33:06.231Z,12.57
2022-07-25T05:33:37.792Z,10.88
2022-07-25T05:34:09.841Z,12.93
2022-07-25T05:34:41.639Z,11.98
2022-07-25T05:35:13.307Z,12.95
2022-07-25T05:35:45.086Z,10.20
2022-07-25T05:36:18.445Z,10.70
2022-07-25T05:36:50.153Z,9.95
2022-07-25T05:37:21.795Z,9.70
2022-07-25T05:37:54.511Z,9.88
2022-07-25T05:38:26.119Z,10.60
2022-07-25T05:38:57.647Z,12.23
2022-07-25T05:39:29.268Z,11.52
2022-07-25T05:40:00.874Z,9.73
2022-07-25T05:40:32.439Z,12.00
2022-07-25T05:41:04.400Z,9.65
2022-07-25T05:41:36.100Z,10.57
2022-07-25T05:42:07.840Z,9.90
2022-07-25T05:42:39.365Z,11.27
2022-07-25T05:43:10.921Z,10.05
2022-07-25T05:43:46.117Z,9.65
2022-07-25T05:44:17.761Z,9.77
2022-07-25T05:44:49.331Z,8.85
2022-07-25T05:45:21.021Z,10.25
2022-07-25T05:45:53.102Z,9.95
2022-07-25T05:46:25.663Z,9.52
2022-07-25T05:46:57.493Z,10.60
2022-07-25T05:47:29.069Z,16.35
2022-07-25T05:48:00.629Z,10.65
2022-07-25T05:48:32.279Z,12.98
2022-07-25T05:49:03.959Z,10.05
2022-07-25T05:49:35.578Z,10.32
2022-07-25T05:50:07.731Z,12.63
2022-07-25T05:50:40.000Z,11.70
2022-07-25T05:51:11.647Z,10.65
2022-07-25T05:51:43.217Z,11.25
2022-07-25T05:52:15.070Z,9.63
2022-07-25T05:52:46.595Z,10.05
2022-07-25T05:53:18.165Z,10.80
2022-07-25T05:53:49.700Z,9.85
2022-07-25T05:54:21.276Z,11.93
2022-07-25T05:54:52.933Z,11.85
2022-07-25T05:55:24.517Z,8.73
2022-07-25T05:55:56.205Z,12.38
2022-07-25T05:56:27.797Z,10.00
2022-07-25T05:56:59.470Z,9.30
2022-07-25T05:57:31.838Z,9.48
2022-07-25T05:58:03.482Z,12.55
2022-07-25T05:58:37.197Z,9.73
2022-07-25T05:59:09.201Z,12.82
2022-07-25T05:59:40.831Z,8.07
2022-07-25T06:00:12.964Z,11.35
2022-07-25T06:00:44.556Z,9.45
2022-07-25T06:01:16.560Z,10.82
2022-07-25T06:01:48.143Z,10.00
2022-07-25T06:02:20.518Z,15.65
2022-07-25T06:02:52.228Z,12.18
2022-07-25T06:03:23.894Z,10.38
2022-07-25T06:03:55.520Z,10.27
2022-07-25T06:04:27.494Z,9.88
2022-07-25T06:04:59.569Z,9.48
2022-07-25T06:05:31.245Z,12.13
2022-07-25T06:06:02.944Z,8.25
2022-07-25T06:06:34.444Z,8.88
2022-07-25T06:07:06.006Z,9.40
2022-07-25T06:07:37.574Z,9.48
2022-07-25T06:08:09.126Z,9.27
2022-07-25T06:08:40.981Z,10.25
2022-07-25T06:09:13.921Z,8.55
2022-07-25T06:09:45.497Z,13.88
2022-07-25T06:10:17.208Z,8.50
2022-07-25T06:10:48.752Z,12.48
2022-07-25T06:11:20.516Z,8.25
2022-07-25T06:12:00.446Z,8.45
2022-07-25T06:12:33.680Z,15.30
2022-07-25T06:13:08.732Z,9.38
2022-07-25T06:13:41.934Z,9.30
2022-07-25T06:14:13.779Z,11.10
2022-07-25T06:14:45.346Z,9.02
2022-07-25T06:15:22.743Z,11.80
2022-07-25T06:15:58.515Z,9.43
2022-07-25T06:16:30.162Z,8.60
2022-07-25T06:17:01.785Z,8.93
2022-07-25T06:17:33.375Z,7.50
2022-07-25T06:18:04.940Z,8.30
2022-07-25T06:18:36.511Z,9.02
2022-07-25T06:19:08.073Z,7.43
2022-07-25T06:19:39.712Z,9.68
2022-07-25T06:20:12.762Z,8.43
2022-07-25T06:20:46.886Z,10.45
2022-07-25T06:21:18.407Z,7.70
2022-07-25T06:21:49.993Z,8.73
2022-07-25T06:22:24.205Z,8.18
2022-07-25T06:22:55.847Z,7.45
2022-07-25T06:23:27.746Z,9.48
2022-07-25T06:23:59.790Z,8.25
2022-07-25T06:24:31.320Z,7.63
2022-07-25T06:25:03.512Z,9.15
2022-07-25T06:25:35.081Z,11.02
2022-07-25T06:26:10.361Z,7.45
2022-07-25T06:26:41.932Z,18.85
2022-07-25T06:27:18.485Z,10.45
2022-07-25T06:27:51.922Z,22.92
2022-07-25T06:28:23.488Z,13.15
2022-07-25T06:28:55.068Z,14.18
2022-07-25T06:29:26.665Z,11.57
2022-07-25T06:29:58.437Z,9.65
2022-07-25T06:30:30.177Z,7.07
2022-07-25T06:31:01.753Z,7.03
2022-07-25T06:31:36.132Z,26.90
2022-07-25T06:32:07.719Z,10.43
2022-07-25T06:32:39.273Z,7.97
2022-07-25T06:33:11.447Z,9.93
2022-07-25T06:33:43.255Z,11.15
2022-07-25T06:34:14.881Z,8.35
2022-07-25T06:34:46.566Z,12.77
2022-07-25T06:35:18.345Z,17.83
2022-07-25T06:35:49.989Z,11.45
2022-07-25T06:36:21.568Z,11.02
2022-07-25T06:37:03.662Z,8.68
2022-07-25T06:37:38.452Z,6.53
2022-07-25T06:38:10.207Z,10.45
2022-07-25T06:38:41.813Z,12.27
2022-07-25T06:39:13.341Z,6.32
2022-07-25T06:39:47.850Z,8.43
2022-07-25T06:40:19.409Z,6.88
2022-07-25T06:40:50.991Z,7.22
2022-07-25T06:41:22.594Z,7.50
2022-07-25T06:41:54.280Z,7.30
2022-07-25T06:42:25.935Z,7.97
2022-07-25T06:42:57.669Z,7.47
2022-07-25T06:43:29.340Z,6.95
2022-07-25T06:44:00.896Z,8.27
2022-07-25T06:44:33.928Z,11.23
2022-07-25T06:45:06.986Z,7.60
2022-07-25T06:45:38.588Z,8.40
2022-07-25T06:46:10.538Z,6.97
2022-07-25T06:46:42.244Z,6.72
2022-07-25T06:47:13.843Z,8.18
2022-07-25T06:47:45.627Z,7.10
2022-07-25T06:48:18.058Z,8.68
2022-07-25T06:48:49.665Z,21.08
2022-07-25T06:49:21.739Z,55.53
2022-07-25T06:49:53.382Z,14.98
2022-07-25T06:50:25.057Z,12.98
2022-07-25T06:50:56.628Z,9.65
2022-07-25T06:51:28.329Z,8.65
2022-07-25T06:51:59.847Z,7.45
2022-07-25T06:52:31.493Z,12.52
2022-07-25T06:53:03.059Z,7.15
2022-07-25T06:53:34.762Z,6.78
2022-07-25T06:54:07.342Z,6.82
2022-07-25T06:54:39.486Z,7.85
2022-07-25T06:55:11.873Z,9.18
2022-07-25T06:55:43.547Z,6.95
2022-07-25T06:56:17.695Z,7.50
2022-07-25T06:56:49.616Z,8.18
2022-07-25T06:57:21.237Z,7.93
2022-07-25T06:57:52.879Z,12.18
2022-07-25T06:58:24.533Z,9.20
2022-07-25T06:58:58.318Z,6.82
2022-07-25T06:59:30.137Z,7.97
2022-07-25T07:00:02.934Z,11.85
2022-07-25T07:00:34.626Z,7.57